sensor_id;sensor_type;location;lat;lon;timestamp;P1;durP1;ratioP1;P2;durP2;ratioP2
8642;SDS011;4359;49.358;11.256;2023-05-02T00:00:35;20.65;;;14.27;;
8642;SDS011;4359;49.358;11.256;2023-05-02T00:03:02;20.25;;;14.63;;
8642;SDS011;4359;49.358;11.256;2023-05-02T00:05:28;18.60;;;14.32;;
8642;SDS011;4359;49.358;11.256;2023-05-02T00:10:20;21.85;;;15.32;;
8642;SDS011;4359;49.358;11.256;2023-05-02T00:12:45;22.55;;;15.68;;
8642;SDS011;4359;49.358;11.256;2023-05-02T00:15:11;26.77;;;16.35;;
8642;SDS011;4359;49.358;11.256;2023-05-02T00:20:05;24.52;;;16.73;;
8642;SDS011;4359;49.358;11.256;2023-05-02T00:22:33;26.80;;;17.90;;
8642;SDS011;4359;49.358;11.256;2023-05-02T00:24:59;21.40;;;16.20;;
8642;SDS011;4359;49.358;11.256;2023-05-02T00:27:25;23.02;;;16.75;;
8642;SDS011;4359;49.358;11.256;2023-05-02T00:32:20;22.73;;;15.98;;
8642;SDS011;4359;49.358;11.256;2023-05-02T00:37:11;28.17;;;16.00;;
8642;SDS011;4359;49.358;11.256;2023-05-02T00:39:37;26.63;;;17.10;;
8642;SDS011;4359;49.358;11.256;2023-05-02T00:44:28;25.42;;;16.67;;
8642;SDS011;4359;49.358;11.256;2023-05-02T00:46:54;28.17;;;18.65;;
8642;SDS011;4359;49.358;11.256;2023-05-02T00:51:46;26.33;;;17.63;;
8642;SDS011;4359;49.358;11.256;2023-05-02T00:56:37;23.58;;;16.20;;
8642;SDS011;4359;49.358;11.256;2023-05-02T00:59:06;23.52;;;16.10;;
8642;SDS011;4359;49.358;11.256;2023-05-02T01:15:31;24.35;;;15.80;;
8642;SDS011;4359;49.358;11.256;2023-05-02T01:17:59;26.90;;;16.42;;
8642;SDS011;4359;49.358;11.256;2023-05-02T01:20:26;31.23;;;17.60;;
8642;SDS011;4359;49.358;11.256;2023-05-02T01:22:57;32.55;;;17.75;;
8642;SDS011;4359;49.358;11.256;2023-05-02T01:30:33;24.80;;;16.38;;
8642;SDS011;4359;49.358;11.256;2023-05-02T01:33:02;26.33;;;17.25;;
8642;SDS011;4359;49.358;11.256;2023-05-02T01:35:29;26.85;;;18.27;;
8642;SDS011;4359;49.358;11.256;2023-05-02T01:37:57;27.02;;;18.80;;
8642;SDS011;4359;49.358;11.256;2023-05-02T01:40:25;25.02;;;17.25;;
8642;SDS011;4359;49.358;11.256;2023-05-02T01:45:18;24.17;;;16.92;;
8642;SDS011;4359;49.358;11.256;2023-05-02T01:47:46;26.45;;;17.75;;
8642;SDS011;4359;49.358;11.256;2023-05-02T01:50:13;28.27;;;18.50;;
8642;SDS011;4359;49.358;11.256;2023-05-02T01:52:44;23.45;;;16.60;;
8642;SDS011;4359;49.358;11.256;2023-05-02T01:55:14;26.40;;;16.83;;
8642;SDS011;4359;49.358;11.256;2023-05-02T01:57:42;24.58;;;17.00;;
8642;SDS011;4359;49.358;11.256;2023-05-02T02:00:10;26.10;;;17.90;;
8642;SDS011;4359;49.358;11.256;2023-05-02T02:02:38;29.35;;;17.33;;
8642;SDS011;4359;49.358;11.256;2023-05-02T02:05:06;31.42;;;18.35;;
8642;SDS011;4359;49.358;11.256;2023-05-02T02:07:33;28.27;;;18.52;;
8642;SDS011;4359;49.358;11.256;2023-05-02T02:09:59;30.35;;;19.23;;
8642;SDS011;4359;49.358;11.256;2023-05-02T02:15:02;27.42;;;17.63;;
8642;SDS011;4359;49.358;11.256;2023-05-02T02:17:35;27.25;;;18.38;;
8642;SDS011;4359;49.358;11.256;2023-05-02T02:20:04;29.10;;;17.65;;
8642;SDS011;4359;49.358;11.256;2023-05-02T02:22:33;25.20;;;17.08;;
8642;SDS011;4359;49.358;11.256;2023-05-02T02:25:02;28.52;;;18.50;;
8642;SDS011;4359;49.358;11.256;2023-05-02T02:27:30;28.13;;;17.88;;
8642;SDS011;4359;49.358;11.256;2023-05-02T02:32:22;26.53;;;17.17;;
8642;SDS011;4359;49.358;11.256;2023-05-02T02:34:48;27.17;;;17.58;;
8642;SDS011;4359;49.358;11.256;2023-05-02T02:37:18;28.42;;;20.30;;
8642;SDS011;4359;49.358;11.256;2023-05-02T02:51:47;24.65;;;16.65;;
8642;SDS011;4359;49.358;11.256;2023-05-02T02:54:48;31.15;;;19.73;;
8642;SDS011;4359;49.358;11.256;2023-05-02T02:59:58;25.38;;;17.52;;
8642;SDS011;4359;49.358;11.256;2023-05-02T03:02:30;24.88;;;16.77;;
8642;SDS011;4359;49.358;11.256;2023-05-02T03:04:57;22.77;;;16.60;;
8642;SDS011;4359;49.358;11.256;2023-05-02T03:07:28;23.58;;;16.50;;
8642;SDS011;4359;49.358;11.256;2023-05-02T03:09:54;22.38;;;15.88;;
8642;SDS011;4359;49.358;11.256;2023-05-02T03:14:45;25.58;;;16.73;;
8642;SDS011;4359;49.358;11.256;2023-05-02T03:19:36;26.05;;;16.63;;
8642;SDS011;4359;49.358;11.256;2023-05-02T03:22:03;25.30;;;17.40;;
8642;SDS011;4359;49.358;11.256;2023-05-02T03:24:29;23.38;;;16.80;;
8642;SDS011;4359;49.358;11.256;2023-05-02T03:26:55;29.50;;;17.90;;
8642;SDS011;4359;49.358;11.256;2023-05-02T03:29:23;25.00;;;17.83;;
8642;SDS011;4359;49.358;11.256;2023-05-02T03:31:49;26.52;;;17.42;;
8642;SDS011;4359;49.358;11.256;2023-05-02T03:34:16;29.50;;;18.55;;
8642;SDS011;4359;49.358;11.256;2023-05-02T03:36:43;27.50;;;18.20;;
8642;SDS011;4359;49.358;11.256;2023-05-02T03:41:35;26.27;;;16.92;;
8642;SDS011;4359;49.358;11.256;2023-05-02T03:46:26;25.13;;;16.42;;
8642;SDS011;4359;49.358;11.256;2023-05-02T03:51:17;26.42;;;17.17;;
8642;SDS011;4359;49.358;11.256;2023-05-02T03:56:08;28.63;;;17.13;;
8642;SDS011;4359;49.358;11.256;2023-05-02T03:58:34;29.00;;;18.45;;
8642;SDS011;4359;49.358;11.256;2023-05-02T04:01:02;24.40;;;17.17;;
8642;SDS011;4359;49.358;11.256;2023-05-02T04:05:54;24.10;;;16.77;;
8642;SDS011;4359;49.358;11.256;2023-05-02T04:08:19;27.83;;;17.58;;
8642;SDS011;4359;49.358;11.256;2023-05-02T04:10:45;31.70;;;17.85;;
8642;SDS011;4359;49.358;11.256;2023-05-02T04:13:11;32.33;;;18.25;;
8642;SDS011;4359;49.358;11.256;2023-05-02T04:18:02;26.55;;;18.75;;
8642;SDS011;4359;49.358;11.256;2023-05-02T04:20:28;29.77;;;19.30;;
8642;SDS011;4359;49.358;11.256;2023-05-02T04:22:54;34.72;;;23.48;;
8642;SDS011;4359;49.358;11.256;2023-05-02T04:27:45;30.27;;;21.23;;
8642;SDS011;4359;49.358;11.256;2023-05-02T04:32:37;28.45;;;19.75;;
8642;SDS011;4359;49.358;11.256;2023-05-02T04:37:29;24.27;;;17.50;;
8642;SDS011;4359;49.358;11.256;2023-05-02T04:39:54;27.48;;;19.48;;
8642;SDS011;4359;49.358;11.256;2023-05-02T04:44:47;27.45;;;18.90;;
8642;SDS011;4359;49.358;11.256;2023-05-02T04:47:12;28.17;;;19.60;;
8642;SDS011;4359;49.358;11.256;2023-05-02T04:52:04;28.35;;;19.75;;
8642;SDS011;4359;49.358;11.256;2023-05-02T04:54:31;30.58;;;23.00;;
8642;SDS011;4359;49.358;11.256;2023-05-02T04:56:59;31.38;;;22.27;;
8642;SDS011;4359;49.358;11.256;2023-05-02T04:59:27;28.70;;;20.48;;
8642;SDS011;4359;49.358;11.256;2023-05-02T05:01:54;33.58;;;21.10;;
8642;SDS011;4359;49.358;11.256;2023-05-02T05:04:20;25.50;;;19.75;;
8642;SDS011;4359;49.358;11.256;2023-05-02T05:09:13;27.85;;;18.73;;
8642;SDS011;4359;49.358;11.256;2023-05-02T05:11:38;26.73;;;17.45;;
8642;SDS011;4359;49.358;11.256;2023-05-02T05:14:06;23.35;;;17.85;;
8642;SDS011;4359;49.358;11.256;2023-05-02T05:18:58;23.10;;;17.05;;
8642;SDS011;4359;49.358;11.256;2023-05-02T05:23:51;23.55;;;16.65;;
8642;SDS011;4359;49.358;11.256;2023-05-02T05:28:42;20.38;;;16.45;;
8642;SDS011;4359;49.358;11.256;2023-05-02T05:31:12;20.40;;;15.98;;
8642;SDS011;4359;49.358;11.256;2023-05-02T05:33:41;21.13;;;15.73;;
8642;SDS011;4359;49.358;11.256;2023-05-02T05:36:11;19.63;;;15.52;;
8642;SDS011;4359;49.358;11.256;2023-05-02T05:38:38;18.23;;;14.38;;
8642;SDS011;4359;49.358;11.256;2023-05-02T05:41:04;17.77;;;13.90;;
8642;SDS011;4359;49.358;11.256;2023-05-02T05:43:31;19.30;;;14.18;;
8642;SDS011;4359;49.358;11.256;2023-05-02T05:45:57;20.52;;;13.80;;
8642;SDS011;4359;49.358;11.256;2023-05-02T05:48:23;17.80;;;14.15;;
8642;SDS011;4359;49.358;11.256;2023-05-02T05:50:48;15.82;;;12.85;;
8642;SDS011;4359;49.358;11.256;2023-05-02T05:53:16;15.13;;;12.68;;
8642;SDS011;4359;49.358;11.256;2023-05-02T05:55:42;19.38;;;13.88;;
8642;SDS011;4359;49.358;11.256;2023-05-02T05:58:07;18.13;;;12.95;;
8642;SDS011;4359;49.358;11.256;2023-05-02T06:00:33;13.52;;;11.85;;
8642;SDS011;4359;49.358;11.256;2023-05-02T06:03:00;16.52;;;12.65;;
8642;SDS011;4359;49.358;11.256;2023-05-02T06:05:26;16.90;;;12.82;;
8642;SDS011;4359;49.358;11.256;2023-05-02T06:07:52;17.77;;;14.10;;
8642;SDS011;4359;49.358;11.256;2023-05-02T06:10:17;18.77;;;14.00;;
8642;SDS011;4359;49.358;11.256;2023-05-02T06:12:43;18.55;;;13.07;;
8642;SDS011;4359;49.358;11.256;2023-05-02T06:15:09;22.15;;;13.52;;
8642;SDS011;4359;49.358;11.256;2023-05-02T06:17:34;16.10;;;12.90;;
8642;SDS011;4359;49.358;11.256;2023-05-02T06:20:00;17.15;;;13.65;;
8642;SDS011;4359;49.358;11.256;2023-05-02T06:22:26;16.30;;;13.27;;
8642;SDS011;4359;49.358;11.256;2023-05-02T06:24:51;18.00;;;13.18;;
8642;SDS011;4359;49.358;11.256;2023-05-02T06:27:17;18.08;;;13.15;;
8642;SDS011;4359;49.358;11.256;2023-05-02T06:29:42;14.30;;;12.10;;
8642;SDS011;4359;49.358;11.256;2023-05-02T06:32:08;17.38;;;13.15;;
8642;SDS011;4359;49.358;11.256;2023-05-02T06:34:34;17.17;;;12.48;;
8642;SDS011;4359;49.358;11.256;2023-05-02T06:37:01;16.30;;;13.70;;
8642;SDS011;4359;49.358;11.256;2023-05-02T06:39:26;18.17;;;13.95;;
8642;SDS011;4359;49.358;11.256;2023-05-02T06:41:56;17.63;;;14.20;;
8642;SDS011;4359;49.358;11.256;2023-05-02T06:44:22;20.13;;;14.98;;
8642;SDS011;4359;49.358;11.256;2023-05-02T06:46:47;21.10;;;15.68;;
8642;SDS011;4359;49.358;11.256;2023-05-02T06:49:14;21.05;;;16.05;;
8642;SDS011;4359;49.358;11.256;2023-05-02T06:51:40;20.30;;;16.55;;
8642;SDS011;4359;49.358;11.256;2023-05-02T06:54:05;25.17;;;17.23;;
8642;SDS011;4359;49.358;11.256;2023-05-02T06:56:31;21.17;;;15.80;;
8642;SDS011;4359;49.358;11.256;2023-05-02T06:58:57;23.05;;;16.25;;
8642;SDS011;4359;49.358;11.256;2023-05-02T07:01:22;23.00;;;17.35;;
8642;SDS011;4359;49.358;11.256;2023-05-02T07:03:48;21.63;;;16.38;;
8642;SDS011;4359;49.358;11.256;2023-05-02T07:06:14;19.95;;;16.00;;
8642;SDS011;4359;49.358;11.256;2023-05-02T07:08:40;19.67;;;15.00;;
8642;SDS011;4359;49.358;11.256;2023-05-02T07:11:06;19.00;;;14.40;;
8642;SDS011;4359;49.358;11.256;2023-05-02T07:13:31;16.60;;;13.77;;
8642;SDS011;4359;49.358;11.256;2023-05-02T07:15:57;17.60;;;13.82;;
8642;SDS011;4359;49.358;11.256;2023-05-02T07:18:23;17.15;;;13.50;;
8642;SDS011;4359;49.358;11.256;2023-05-02T07:20:48;16.35;;;13.43;;
8642;SDS011;4359;49.358;11.256;2023-05-02T07:23:14;19.17;;;14.23;;
8642;SDS011;4359;49.358;11.256;2023-05-02T07:25:39;19.52;;;14.05;;
8642;SDS011;4359;49.358;11.256;2023-05-02T07:28:05;18.48;;;13.00;;
8642;SDS011;4359;49.358;11.256;2023-05-02T07:30:32;18.73;;;13.68;;
8642;SDS011;4359;49.358;11.256;2023-05-02T07:32:58;17.23;;;13.40;;
8642;SDS011;4359;49.358;11.256;2023-05-02T07:35:24;17.17;;;13.20;;
8642;SDS011;4359;49.358;11.256;2023-05-02T07:37:49;16.35;;;12.85;;
8642;SDS011;4359;49.358;11.256;2023-05-02T07:40:15;20.13;;;14.05;;
8642;SDS011;4359;49.358;11.256;2023-05-02T07:42:41;17.05;;;13.25;;
8642;SDS011;4359;49.358;11.256;2023-05-02T07:45:08;16.95;;;13.00;;
8642;SDS011;4359;49.358;11.256;2023-05-02T07:47:34;17.13;;;13.05;;
8642;SDS011;4359;49.358;11.256;2023-05-02T07:50:00;20.05;;;13.07;;
8642;SDS011;4359;49.358;11.256;2023-05-02T07:52:28;17.25;;;12.63;;
8642;SDS011;4359;49.358;11.256;2023-05-02T07:54:54;17.20;;;12.25;;
8642;SDS011;4359;49.358;11.256;2023-05-02T07:57:20;14.75;;;11.57;;
8642;SDS011;4359;49.358;11.256;2023-05-02T07:59:46;13.32;;;11.48;;
8642;SDS011;4359;49.358;11.256;2023-05-02T08:02:12;16.58;;;11.45;;
8642;SDS011;4359;49.358;11.256;2023-05-02T08:04:38;16.27;;;11.15;;
8642;SDS011;4359;49.358;11.256;2023-05-02T08:07:04;16.15;;;12.02;;
8642;SDS011;4359;49.358;11.256;2023-05-02T08:09:29;15.48;;;11.43;;
8642;SDS011;4359;49.358;11.256;2023-05-02T08:11:55;17.63;;;11.15;;
8642;SDS011;4359;49.358;11.256;2023-05-02T08:14:21;16.25;;;11.30;;
8642;SDS011;4359;49.358;11.256;2023-05-02T08:16:47;26.83;;;11.60;;
8642;SDS011;4359;49.358;11.256;2023-05-02T08:19:13;13.23;;;10.27;;
8642;SDS011;4359;49.358;11.256;2023-05-02T08:21:39;14.43;;;10.65;;
8642;SDS011;4359;49.358;11.256;2023-05-02T08:24:05;14.15;;;9.88;;
8642;SDS011;4359;49.358;11.256;2023-05-02T08:26:30;14.68;;;10.65;;
8642;SDS011;4359;49.358;11.256;2023-05-02T08:28:56;13.48;;;10.00;;
8642;SDS011;4359;49.358;11.256;2023-05-02T08:31:22;13.00;;;9.45;;
8642;SDS011;4359;49.358;11.256;2023-05-02T08:33:47;13.13;;;9.27;;
8642;SDS011;4359;49.358;11.256;2023-05-02T08:36:14;18.63;;;10.18;;
8642;SDS011;4359;49.358;11.256;2023-05-02T08:38:41;13.38;;;9.23;;
8642;SDS011;4359;49.358;11.256;2023-05-02T08:41:14;13.35;;;9.07;;
8642;SDS011;4359;49.358;11.256;2023-05-02T08:43:41;11.82;;;8.88;;
8642;SDS011;4359;49.358;11.256;2023-05-02T08:46:09;14.10;;;8.57;;
8642;SDS011;4359;49.358;11.256;2023-05-02T08:48:36;11.15;;;8.68;;
8642;SDS011;4359;49.358;11.256;2023-05-02T08:51:04;13.23;;;9.05;;
8642;SDS011;4359;49.358;11.256;2023-05-02T08:53:34;13.27;;;8.52;;
8642;SDS011;4359;49.358;11.256;2023-05-02T08:56:01;12.65;;;8.77;;
8642;SDS011;4359;49.358;11.256;2023-05-02T08:58:27;9.35;;;7.90;;
8642;SDS011;4359;49.358;11.256;2023-05-02T09:00:54;10.07;;;7.63;;
8642;SDS011;4359;49.358;11.256;2023-05-02T09:05:56;11.35;;;7.95;;
8642;SDS011;4359;49.358;11.256;2023-05-02T09:08:27;10.77;;;8.30;;
8642;SDS011;4359;49.358;11.256;2023-05-02T09:10:52;12.60;;;7.85;;
8642;SDS011;4359;49.358;11.256;2023-05-02T09:16:14;13.40;;;8.68;;
8642;SDS011;4359;49.358;11.256;2023-05-02T09:18:41;12.27;;;9.00;;
8642;SDS011;4359;49.358;11.256;2023-05-02T09:21:08;12.68;;;9.50;;
8642;SDS011;4359;49.358;11.256;2023-05-02T09:23:39;12.35;;;9.02;;
8642;SDS011;4359;49.358;11.256;2023-05-02T09:26:10;11.52;;;9.55;;
8642;SDS011;4359;49.358;11.256;2023-05-02T09:28:45;13.27;;;9.77;;
8642;SDS011;4359;49.358;11.256;2023-05-02T09:31:12;13.10;;;9.88;;
8642;SDS011;4359;49.358;11.256;2023-05-02T09:33:40;14.68;;;10.95;;
8642;SDS011;4359;49.358;11.256;2023-05-02T09:36:07;13.93;;;10.48;;
8642;SDS011;4359;49.358;11.256;2023-05-02T09:38:35;14.95;;;10.00;;
8642;SDS011;4359;49.358;11.256;2023-05-02T09:41:01;23.50;;;10.20;;
8642;SDS011;4359;49.358;11.256;2023-05-02T09:43:28;11.43;;;9.05;;
8642;SDS011;4359;49.358;11.256;2023-05-02T09:45:55;17.15;;;9.48;;
8642;SDS011;4359;49.358;11.256;2023-05-02T09:48:28;14.88;;;10.77;;
8642;SDS011;4359;49.358;11.256;2023-05-02T09:50:57;12.98;;;9.68;;
8642;SDS011;4359;49.358;11.256;2023-05-02T09:53:23;13.35;;;9.23;;
8642;SDS011;4359;49.358;11.256;2023-05-02T09:56:00;14.52;;;9.95;;
8642;SDS011;4359;49.358;11.256;2023-05-02T09:58:27;11.60;;;8.88;;
8642;SDS011;4359;49.358;11.256;2023-05-02T10:00:54;11.18;;;8.63;;
8642;SDS011;4359;49.358;11.256;2023-05-02T10:03:21;12.90;;;8.52;;
8642;SDS011;4359;49.358;11.256;2023-05-02T10:05:48;12.73;;;9.38;;
8642;SDS011;4359;49.358;11.256;2023-05-02T10:08:15;13.77;;;8.27;;
8642;SDS011;4359;49.358;11.256;2023-05-02T10:10:49;12.90;;;8.48;;
8642;SDS011;4359;49.358;11.256;2023-05-02T10:13:23;11.43;;;8.85;;
8642;SDS011;4359;49.358;11.256;2023-05-02T10:21:10;10.23;;;6.45;;
8642;SDS011;4359;49.358;11.256;2023-05-02T10:23:37;10.38;;;6.85;;
8642;SDS011;4359;49.358;11.256;2023-05-02T10:26:07;10.13;;;5.90;;
8642;SDS011;4359;49.358;11.256;2023-05-02T10:28:34;10.48;;;6.95;;
8642;SDS011;4359;49.358;11.256;2023-05-02T10:31:01;7.65;;;6.07;;
8642;SDS011;4359;49.358;11.256;2023-05-02T10:33:29;10.88;;;6.35;;
8642;SDS011;4359;49.358;11.256;2023-05-02T10:35:58;9.27;;;6.60;;
8642;SDS011;4359;49.358;11.256;2023-05-02T10:38:24;9.55;;;6.25;;
8642;SDS011;4359;49.358;11.256;2023-05-02T10:40:55;7.65;;;5.93;;
8642;SDS011;4359;49.358;11.256;2023-05-02T10:43:25;8.82;;;6.22;;
8642;SDS011;4359;49.358;11.256;2023-05-02T10:45:58;8.02;;;5.53;;
8642;SDS011;4359;49.358;11.256;2023-05-02T10:48:24;9.55;;;5.90;;
8642;SDS011;4359;49.358;11.256;2023-05-02T10:50:59;7.95;;;5.80;;
8642;SDS011;4359;49.358;11.256;2023-05-02T10:53:29;7.00;;;4.90;;
8642;SDS011;4359;49.358;11.256;2023-05-02T10:58:38;8.30;;;4.85;;
8642;SDS011;4359;49.358;11.256;2023-05-02T11:03:52;8.93;;;5.45;;
8642;SDS011;4359;49.358;11.256;2023-05-02T11:06:20;9.32;;;5.32;;
8642;SDS011;4359;49.358;11.256;2023-05-02T11:08:46;7.65;;;4.90;;
8642;SDS011;4359;49.358;11.256;2023-05-02T11:14:06;10.70;;;5.35;;
8642;SDS011;4359;49.358;11.256;2023-05-02T11:19:24;7.65;;;4.88;;
8642;SDS011;4359;49.358;11.256;2023-05-02T11:21:50;8.00;;;4.70;;
8642;SDS011;4359;49.358;11.256;2023-05-02T11:24:37;7.43;;;4.20;;
8642;SDS011;4359;49.358;11.256;2023-05-02T11:29:56;5.07;;;4.25;;
8642;SDS011;4359;49.358;11.256;2023-05-02T11:32:24;10.55;;;4.28;;
8642;SDS011;4359;49.358;11.256;2023-05-02T11:35:20;8.13;;;4.60;;
8642;SDS011;4359;49.358;11.256;2023-05-02T11:37:57;6.78;;;4.45;;
8642;SDS011;4359;49.358;11.256;2023-05-02T11:40:25;7.05;;;5.15;;
8642;SDS011;4359;49.358;11.256;2023-05-02T11:42:51;7.43;;;4.63;;
8642;SDS011;4359;49.358;11.256;2023-05-02T11:45:17;6.07;;;4.32;;
8642;SDS011;4359;49.358;11.256;2023-05-02T11:47:45;8.35;;;4.43;;
8642;SDS011;4359;49.358;11.256;2023-05-02T11:50:12;10.20;;;4.88;;
8642;SDS011;4359;49.358;11.256;2023-05-02T11:52:39;6.40;;;4.60;;
8642;SDS011;4359;49.358;11.256;2023-05-02T11:55:07;7.65;;;5.03;;
8642;SDS011;4359;49.358;11.256;2023-05-02T11:57:36;5.68;;;4.70;;
8642;SDS011;4359;49.358;11.256;2023-05-02T12:00:02;8.15;;;4.57;;
8642;SDS011;4359;49.358;11.256;2023-05-02T12:05:02;5.40;;;4.10;;
8642;SDS011;4359;49.358;11.256;2023-05-02T12:07:41;8.07;;;4.65;;
8642;SDS011;4359;49.358;11.256;2023-05-02T12:10:13;7.63;;;4.90;;
8642;SDS011;4359;49.358;11.256;2023-05-02T12:12:40;8.52;;;4.93;;
8642;SDS011;4359;49.358;11.256;2023-05-02T12:15:08;6.90;;;4.50;;
8642;SDS011;4359;49.358;11.256;2023-05-02T12:17:42;7.85;;;4.80;;
8642;SDS011;4359;49.358;11.256;2023-05-02T12:20:12;6.13;;;4.50;;
8642;SDS011;4359;49.358;11.256;2023-05-02T12:22:38;8.27;;;4.78;;
8642;SDS011;4359;49.358;11.256;2023-05-02T12:25:04;7.35;;;4.32;;
8642;SDS011;4359;49.358;11.256;2023-05-02T12:27:30;5.90;;;3.65;;
8642;SDS011;4359;49.358;11.256;2023-05-02T12:29:59;8.05;;;4.10;;
8642;SDS011;4359;49.358;11.256;2023-05-02T12:32:26;8.55;;;4.57;;
8642;SDS011;4359;49.358;11.256;2023-05-02T12:38:16;6.75;;;4.22;;
8642;SDS011;4359;49.358;11.256;2023-05-02T12:40:50;6.20;;;4.32;;
8642;SDS011;4359;49.358;11.256;2023-05-02T12:43:18;6.07;;;4.25;;
8642;SDS011;4359;49.358;11.256;2023-05-02T12:45:44;6.35;;;4.50;;
8642;SDS011;4359;49.358;11.256;2023-05-02T12:50:43;7.38;;;4.65;;
8642;SDS011;4359;49.358;11.256;2023-05-02T12:53:09;10.93;;;5.25;;
8642;SDS011;4359;49.358;11.256;2023-05-02T12:55:35;11.63;;;5.38;;
8642;SDS011;4359;49.358;11.256;2023-05-02T12:58:04;18.00;;;7.03;;
8642;SDS011;4359;49.358;11.256;2023-05-02T13:03:04;11.48;;;6.60;;
8642;SDS011;4359;49.358;11.256;2023-05-02T13:05:30;12.73;;;6.95;;
8642;SDS011;4359;49.358;11.256;2023-05-02T13:07:56;13.85;;;7.70;;
8642;SDS011;4359;49.358;11.256;2023-05-02T13:10:23;14.88;;;8.30;;
8642;SDS011;4359;49.358;11.256;2023-05-02T13:12:50;14.55;;;8.32;;
8642;SDS011;4359;49.358;11.256;2023-05-02T13:15:16;15.80;;;7.88;;
8642;SDS011;4359;49.358;11.256;2023-05-02T13:17:43;17.23;;;8.45;;
8642;SDS011;4359;49.358;11.256;2023-05-02T13:20:09;14.23;;;8.27;;
8642;SDS011;4359;49.358;11.256;2023-05-02T13:22:35;14.85;;;8.85;;
8642;SDS011;4359;49.358;11.256;2023-05-02T13:25:02;9.95;;;6.65;;
8642;SDS011;4359;49.358;11.256;2023-05-02T13:27:29;6.85;;;4.25;;
8642;SDS011;4359;49.358;11.256;2023-05-02T13:29:55;5.35;;;3.60;;
8642;SDS011;4359;49.358;11.256;2023-05-02T13:32:20;7.10;;;4.90;;
8642;SDS011;4359;49.358;11.256;2023-05-02T13:34:46;11.18;;;5.25;;
8642;SDS011;4359;49.358;11.256;2023-05-02T13:37:12;7.55;;;4.97;;
8642;SDS011;4359;49.358;11.256;2023-05-02T13:39:38;8.23;;;4.78;;
8642;SDS011;4359;49.358;11.256;2023-05-02T13:42:04;6.45;;;4.13;;
8642;SDS011;4359;49.358;11.256;2023-05-02T13:44:30;9.30;;;4.40;;
8642;SDS011;4359;49.358;11.256;2023-05-02T13:46:56;5.90;;;4.00;;
8642;SDS011;4359;49.358;11.256;2023-05-02T13:49:22;6.00;;;4.03;;
8642;SDS011;4359;49.358;11.256;2023-05-02T13:51:48;5.18;;;3.53;;
8642;SDS011;4359;49.358;11.256;2023-05-02T13:54:14;6.72;;;3.60;;
8642;SDS011;4359;49.358;11.256;2023-05-02T13:56:40;5.93;;;3.80;;
8642;SDS011;4359;49.358;11.256;2023-05-02T13:59:06;7.65;;;3.47;;
8642;SDS011;4359;49.358;11.256;2023-05-02T14:01:33;3.97;;;2.72;;
8642;SDS011;4359;49.358;11.256;2023-05-02T14:03:58;4.50;;;2.30;;
8642;SDS011;4359;49.358;11.256;2023-05-02T14:06:24;4.32;;;2.35;;
8642;SDS011;4359;49.358;11.256;2023-05-02T14:08:50;3.53;;;2.28;;
8642;SDS011;4359;49.358;11.256;2023-05-02T14:11:16;6.72;;;2.55;;
8642;SDS011;4359;49.358;11.256;2023-05-02T14:13:42;4.38;;;2.55;;
8642;SDS011;4359;49.358;11.256;2023-05-02T14:16:08;4.03;;;2.35;;
8642;SDS011;4359;49.358;11.256;2023-05-02T14:18:34;7.43;;;2.35;;
8642;SDS011;4359;49.358;11.256;2023-05-02T14:20:59;3.25;;;2.13;;
8642;SDS011;4359;49.358;11.256;2023-05-02T14:23:27;3.20;;;2.00;;
8642;SDS011;4359;49.358;11.256;2023-05-02T14:25:53;4.22;;;2.30;;
8642;SDS011;4359;49.358;11.256;2023-05-02T14:28:19;4.30;;;2.70;;
8642;SDS011;4359;49.358;11.256;2023-05-02T14:30:46;5.00;;;2.55;;
8642;SDS011;4359;49.358;11.256;2023-05-02T14:33:13;3.67;;;2.22;;
8642;SDS011;4359;49.358;11.256;2023-05-02T14:35:38;5.53;;;2.17;;
8642;SDS011;4359;49.358;11.256;2023-05-02T14:38:04;5.00;;;2.35;;
8642;SDS011;4359;49.358;11.256;2023-05-02T14:40:30;4.30;;;2.40;;
8642;SDS011;4359;49.358;11.256;2023-05-02T14:42:56;4.57;;;2.30;;
8642;SDS011;4359;49.358;11.256;2023-05-02T14:45:21;10.63;;;6.07;;
8642;SDS011;4359;49.358;11.256;2023-05-02T14:47:47;6.15;;;2.20;;
8642;SDS011;4359;49.358;11.256;2023-05-02T14:50:14;9.00;;;6.03;;
8642;SDS011;4359;49.358;11.256;2023-05-02T14:52:40;7.35;;;2.97;;
8642;SDS011;4359;49.358;11.256;2023-05-02T14:55:06;3.85;;;2.55;;
8642;SDS011;4359;49.358;11.256;2023-05-02T14:57:32;5.22;;;2.67;;
8642;SDS011;4359;49.358;11.256;2023-05-02T14:59:58;5.88;;;2.35;;
8642;SDS011;4359;49.358;11.256;2023-05-02T15:02:24;3.45;;;1.90;;
8642;SDS011;4359;49.358;11.256;2023-05-02T15:04:50;2.75;;;1.88;;
8642;SDS011;4359;49.358;11.256;2023-05-02T15:07:16;2.83;;;1.70;;
8642;SDS011;4359;49.358;11.256;2023-05-02T15:09:42;4.32;;;2.08;;
8642;SDS011;4359;49.358;11.256;2023-05-02T15:12:07;2.67;;;1.70;;
8642;SDS011;4359;49.358;11.256;2023-05-02T15:14:33;4.53;;;2.60;;
8642;SDS011;4359;49.358;11.256;2023-05-02T15:16:59;6.03;;;2.88;;
8642;SDS011;4359;49.358;11.256;2023-05-02T15:19:25;4.72;;;1.95;;
8642;SDS011;4359;49.358;11.256;2023-05-02T15:21:50;3.35;;;1.60;;
8642;SDS011;4359;49.358;11.256;2023-05-02T15:24:21;4.03;;;1.88;;
8642;SDS011;4359;49.358;11.256;2023-05-02T15:26:48;2.70;;;1.67;;
8642;SDS011;4359;49.358;11.256;2023-05-02T15:29:15;4.20;;;1.77;;
8642;SDS011;4359;49.358;11.256;2023-05-02T15:31:40;5.93;;;1.60;;
8642;SDS011;4359;49.358;11.256;2023-05-02T15:34:07;3.97;;;1.60;;
8642;SDS011;4359;49.358;11.256;2023-05-02T15:36:33;2.95;;;1.58;;
8642;SDS011;4359;49.358;11.256;2023-05-02T15:39:01;2.72;;;1.52;;
8642;SDS011;4359;49.358;11.256;2023-05-02T15:41:30;2.67;;;1.70;;
8642;SDS011;4359;49.358;11.256;2023-05-02T15:43:57;2.95;;;1.60;;
8642;SDS011;4359;49.358;11.256;2023-05-02T15:46:23;2.72;;;1.42;;
8642;SDS011;4359;49.358;11.256;2023-05-02T15:48:48;2.97;;;1.60;;
8642;SDS011;4359;49.358;11.256;2023-05-02T15:51:14;5.93;;;1.52;;
8642;SDS011;4359;49.358;11.256;2023-05-02T15:53:41;2.72;;;1.45;;
8642;SDS011;4359;49.358;11.256;2023-05-02T15:56:08;5.85;;;1.40;;
8642;SDS011;4359;49.358;11.256;2023-05-02T15:58:37;3.35;;;1.73;;
8642;SDS011;4359;49.358;11.256;2023-05-02T16:01:04;4.00;;;1.50;;
8642;SDS011;4359;49.358;11.256;2023-05-02T16:03:30;3.30;;;1.35;;
8642;SDS011;4359;49.358;11.256;2023-05-02T16:05:56;2.42;;;1.30;;
8642;SDS011;4359;49.358;11.256;2023-05-02T16:08:25;2.58;;;1.40;;
8642;SDS011;4359;49.358;11.256;2023-05-02T16:10:51;2.33;;;1.33;;
8642;SDS011;4359;49.358;11.256;2023-05-02T16:13:17;4.85;;;1.85;;
8642;SDS011;4359;49.358;11.256;2023-05-02T16:15:43;3.20;;;1.52;;
8642;SDS011;4359;49.358;11.256;2023-05-02T16:18:09;5.20;;;1.80;;
8642;SDS011;4359;49.358;11.256;2023-05-02T16:20:35;5.13;;;1.70;;
8642;SDS011;4359;49.358;11.256;2023-05-02T16:23:01;3.78;;;1.60;;
8642;SDS011;4359;49.358;11.256;2023-05-02T16:25:28;2.67;;;1.52;;
8642;SDS011;4359;49.358;11.256;2023-05-02T16:27:53;2.25;;;1.30;;
8642;SDS011;4359;49.358;11.256;2023-05-02T16:30:19;7.60;;;3.70;;
8642;SDS011;4359;49.358;11.256;2023-05-02T16:32:45;5.05;;;2.17;;
8642;SDS011;4359;49.358;11.256;2023-05-02T16:35:11;2.40;;;1.48;;
8642;SDS011;4359;49.358;11.256;2023-05-02T16:37:37;13.38;;;4.93;;
8642;SDS011;4359;49.358;11.256;2023-05-02T16:40:05;13.35;;;3.92;;
8642;SDS011;4359;49.358;11.256;2023-05-02T16:42:32;2.70;;;1.58;;
8642;SDS011;4359;49.358;11.256;2023-05-02T16:44:58;2.92;;;2.10;;
8642;SDS011;4359;49.358;11.256;2023-05-02T16:47:23;4.85;;;2.53;;
8642;SDS011;4359;49.358;11.256;2023-05-02T16:49:56;11.70;;;5.95;;
8642;SDS011;4359;49.358;11.256;2023-05-02T16:52:22;13.60;;;9.23;;
8642;SDS011;4359;49.358;11.256;2023-05-02T16:54:48;3.95;;;1.45;;
8642;SDS011;4359;49.358;11.256;2023-05-02T16:57:14;2.60;;;1.17;;
8642;SDS011;4359;49.358;11.256;2023-05-02T16:59:45;9.40;;;5.22;;